sensor_id;sensor_type;location;lat;lon;timestamp;P1;durP1;ratioP1;P2;durP2;ratioP2
9974;SDS011;5028;50.974;4.968;2024-03-23T00:52:41;13.97;;;3.93;;
9974;SDS011;5028;50.974;4.968;2024-03-23T00:55:07;8.73;;;3.60;;
9974;SDS011;5028;50.974;4.968;2024-03-23T00:57:34;10.43;;;3.47;;
9974;SDS011;5028;50.974;4.968;2024-03-23T01:00:01;14.50;;;3.87;;
9974;SDS011;5028;50.974;4.968;2024-03-23T01:02:31;10.70;;;3.63;;
9974;SDS011;5028;50.974;4.968;2024-03-23T01:04:58;9.47;;;3.50;;
9974;SDS011;5028;50.974;4.968;2024-03-23T01:07:26;13.77;;;3.73;;
9974;SDS011;5028;50.974;4.968;2024-03-23T01:09:52;10.67;;;3.43;;
9974;SDS011;5028;50.974;4.968;2024-03-23T01:12:19;12.23;;;3.50;;
9974;SDS011;5028;50.974;4.968;2024-03-23T01:14:45;10.40;;;3.33;;
9974;SDS011;5028;50.974;4.968;2024-03-23T01:17:12;13.30;;;3.73;;
9974;SDS011;5028;50.974;4.968;2024-03-23T01:19:39;12.17;;;3.47;;
9974;SDS011;5028;50.974;4.968;2024-03-23T01:22:08;14.27;;;4.00;;
9974;SDS011;5028;50.974;4.968;2024-03-23T01:24:35;12.83;;;3.70;;
9974;SDS011;5028;50.974;4.968;2024-03-23T01:27:02;11.10;;;3.27;;
9974;SDS011;5028;50.974;4.968;2024-03-23T01:29:29;14.50;;;3.30;;
9974;SDS011;5028;50.974;4.968;2024-03-23T01:31:58;14.87;;;3.57;;
9974;SDS011;5028;50.974;4.968;2024-03-23T01:34:24;11.60;;;3.50;;
9974;SDS011;5028;50.974;4.968;2024-03-23T01:36:53;10.90;;;3.80;;
9974;SDS011;5028;50.974;4.968;2024-03-23T01:39:20;10.23;;;3.23;;
9974;SDS011;5028;50.974;4.968;2024-03-23T01:41:48;10.70;;;3.50;;
9974;SDS011;5028;50.974;4.968;2024-03-23T01:44:14;11.60;;;3.20;;
9974;SDS011;5028;50.974;4.968;2024-03-23T01:46:41;11.60;;;3.77;;
9974;SDS011;5028;50.974;4.968;2024-03-23T01:49:07;11.83;;;3.60;;
9974;SDS011;5028;50.974;4.968;2024-03-23T01:51:35;10.87;;;3.47;;
9974;SDS011;5028;50.974;4.968;2024-03-23T01:54:02;12.03;;;3.50;;
9974;SDS011;5028;50.974;4.968;2024-03-23T01:56:33;12.47;;;3.73;;
9974;SDS011;5028;50.974;4.968;2024-03-23T01:59:00;8.97;;;3.17;;
9974;SDS011;5028;50.974;4.968;2024-03-23T02:01:27;13.80;;;3.47;;
9974;SDS011;5028;50.974;4.968;2024-03-23T02:03:53;10.67;;;3.50;;
9974;SDS011;5028;50.974;4.968;2024-03-23T02:06:21;9.87;;;3.03;;
9974;SDS011;5028;50.974;4.968;2024-03-23T02:08:47;12.23;;;3.57;;
9974;SDS011;5028;50.974;4.968;2024-03-23T02:11:14;10.77;;;3.40;;
9974;SDS011;5028;50.974;4.968;2024-03-23T02:13:42;9.90;;;3.27;;
9974;SDS011;5028;50.974;4.968;2024-03-23T02:16:09;9.73;;;3.00;;
9974;SDS011;5028;50.974;4.968;2024-03-23T02:18:36;9.73;;;2.77;;
9974;SDS011;5028;50.974;4.968;2024-03-23T02:21:03;9.00;;;2.67;;
9974;SDS011;5028;50.974;4.968;2024-03-23T02:23:31;10.40;;;2.70;;
9974;SDS011;5028;50.974;4.968;2024-03-23T02:25:58;11.93;;;3.23;;
9974;SDS011;5028;50.974;4.968;2024-03-23T02:28:24;10.37;;;2.90;;
9974;SDS011;5028;50.974;4.968;2024-03-23T02:30:51;9.50;;;3.03;;
9974;SDS011;5028;50.974;4.968;2024-03-23T02:33:18;7.93;;;3.23;;
9974;SDS011;5028;50.974;4.968;2024-03-23T02:35:45;8.30;;;3.10;;
9974;SDS011;5028;50.974;4.968;2024-03-23T02:38:12;9.47;;;3.03;;
9974;SDS011;5028;50.974;4.968;2024-03-23T02:40:40;10.10;;;3.40;;
9974;SDS011;5028;50.974;4.968;2024-03-23T02:43:07;8.40;;;3.00;;
9974;SDS011;5028;50.974;4.968;2024-03-23T02:45:34;10.07;;;2.90;;
9974;SDS011;5028;50.974;4.968;2024-03-23T02:48:00;13.23;;;3.73;;
9974;SDS011;5028;50.974;4.968;2024-03-23T02:50:27;12.27;;;3.50;;
9974;SDS011;5028;50.974;4.968;2024-03-23T02:52:53;7.97;;;3.47;;
9974;SDS011;5028;50.974;4.968;2024-03-23T02:55:20;11.50;;;3.60;;
9974;SDS011;5028;50.974;4.968;2024-03-23T02:57:48;17.60;;;4.47;;
9974;SDS011;5028;50.974;4.968;2024-03-23T03:00:15;14.57;;;3.93;;
9974;SDS011;5028;50.974;4.968;2024-03-23T03:02:42;11.70;;;4.13;;
9974;SDS011;5028;50.974;4.968;2024-03-23T03:05:09;14.23;;;4.07;;
9974;SDS011;5028;50.974;4.968;2024-03-23T03:07:36;12.10;;;4.27;;
9974;SDS011;5028;50.974;4.968;2024-03-23T03:10:06;14.23;;;4.67;;
9974;SDS011;5028;50.974;4.968;2024-03-23T03:12:35;16.00;;;4.40;;
9974;SDS011;5028;50.974;4.968;2024-03-23T03:15:04;14.37;;;4.73;;
9974;SDS011;5028;50.974;4.968;2024-03-23T03:17:34;17.03;;;5.33;;
9974;SDS011;5028;50.974;4.968;2024-03-23T03:20:01;13.33;;;4.70;;
9974;SDS011;5028;50.974;4.968;2024-03-23T03:22:30;12.50;;;4.80;;
9974;SDS011;5028;50.974;4.968;2024-03-23T03:24:57;15.67;;;4.93;;
9974;SDS011;5028;50.974;4.968;2024-03-23T03:27:23;16.00;;;6.17;;
9974;SDS011;5028;50.974;4.968;2024-03-23T03:29:51;16.17;;;6.13;;
9974;SDS011;5028;50.974;4.968;2024-03-23T03:32:19;16.00;;;5.70;;
9974;SDS011;5028;50.974;4.968;2024-03-23T03:34:46;14.83;;;6.20;;
9974;SDS011;5028;50.974;4.968;2024-03-23T03:37:12;13.33;;;6.30;;
9974;SDS011;5028;50.974;4.968;2024-03-23T03:39:39;19.97;;;6.20;;
9974;SDS011;5028;50.974;4.968;2024-03-23T03:42:08;16.30;;;6.60;;
9974;SDS011;5028;50.974;4.968;2024-03-23T03:44:36;15.70;;;6.90;;
9974;SDS011;5028;50.974;4.968;2024-03-23T03:47:02;15.70;;;6.67;;
9974;SDS011;5028;50.974;4.968;2024-03-23T03:49:32;14.30;;;7.57;;
9974;SDS011;5028;50.974;4.968;2024-03-23T03:51:58;16.17;;;7.47;;
9974;SDS011;5028;50.974;4.968;2024-03-23T03:54:26;15.67;;;7.30;;
9974;SDS011;5028;50.974;4.968;2024-03-23T03:56:53;19.70;;;7.80;;
9974;SDS011;5028;50.974;4.968;2024-03-23T03:59:20;18.03;;;7.93;;
9974;SDS011;5028;50.974;4.968;2024-03-23T04:01:46;19.43;;;7.80;;
9974;SDS011;5028;50.974;4.968;2024-03-23T04:04:13;16.03;;;7.33;;
9974;SDS011;5028;50.974;4.968;2024-03-23T04:06:43;16.50;;;7.30;;
9974;SDS011;5028;50.974;4.968;2024-03-23T04:09:10;16.87;;;7.10;;
9974;SDS011;5028;50.974;4.968;2024-03-23T04:11:36;15.83;;;6.87;;
9974;SDS011;5028;50.974;4.968;2024-03-23T04:14:04;12.97;;;7.37;;
9974;SDS011;5028;50.974;4.968;2024-03-23T04:16:33;16.83;;;7.07;;
9974;SDS011;5028;50.974;4.968;2024-03-23T04:19:01;15.67;;;6.90;;
9974;SDS011;5028;50.974;4.968;2024-03-23T04:21:27;17.17;;;6.17;;
9974;SDS011;5028;50.974;4.968;2024-03-23T04:23:56;12.17;;;6.17;;
9974;SDS011;5028;50.974;4.968;2024-03-23T04:26:22;14.00;;;6.37;;
9974;SDS011;5028;50.974;4.968;2024-03-23T04:28:49;13.10;;;6.53;;
9974;SDS011;5028;50.974;4.968;2024-03-23T04:31:15;12.63;;;6.43;;
9974;SDS011;5028;50.974;4.968;2024-03-23T04:33:43;12.27;;;5.97;;
9974;SDS011;5028;50.974;4.968;2024-03-23T04:36:09;13.63;;;5.90;;
9974;SDS011;5028;50.974;4.968;2024-03-23T04:38:36;15.07;;;6.43;;
9974;SDS011;5028;50.974;4.968;2024-03-23T04:41:05;16.80;;;6.90;;
9974;SDS011;5028;50.974;4.968;2024-03-23T04:43:32;12.80;;;6.03;;
9974;SDS011;5028;50.974;4.968;2024-03-23T04:45:59;12.97;;;6.07;;
9974;SDS011;5028;50.974;4.968;2024-03-23T04:48:26;13.33;;;6.33;;
9974;SDS011;5028;50.974;4.968;2024-03-23T04:50:57;12.20;;;6.23;;
9974;SDS011;5028;50.974;4.968;2024-03-23T04:53:24;14.63;;;6.60;;
9974;SDS011;5028;50.974;4.968;2024-03-23T04:55:53;15.37;;;6.43;;
9974;SDS011;5028;50.974;4.968;2024-03-23T04:58:21;15.60;;;6.87;;
9974;SDS011;5028;50.974;4.968;2024-03-23T05:00:52;14.57;;;7.03;;
9974;SDS011;5028;50.974;4.968;2024-03-23T05:03:19;14.53;;;6.77;;
9974;SDS011;5028;50.974;4.968;2024-03-23T05:05:47;14.73;;;6.43;;
9974;SDS011;5028;50.974;4.968;2024-03-23T05:08:13;15.67;;;7.20;;
9974;SDS011;5028;50.974;4.968;2024-03-23T05:10:41;18.83;;;7.00;;
9974;SDS011;5028;50.974;4.968;2024-03-23T05:13:07;15.37;;;7.17;;
9974;SDS011;5028;50.974;4.968;2024-03-23T05:15:36;15.17;;;6.93;;
9974;SDS011;5028;50.974;4.968;2024-03-23T05:18:02;20.60;;;7.50;;
9974;SDS011;5028;50.974;4.968;2024-03-23T05:20:30;14.13;;;7.30;;
9974;SDS011;5028;50.974;4.968;2024-03-23T05:22:56;14.27;;;7.13;;
9974;SDS011;5028;50.974;4.968;2024-03-23T05:25:24;13.50;;;6.77;;
9974;SDS011;5028;50.974;4.968;2024-03-23T05:27:50;13.30;;;7.30;;
9974;SDS011;5028;50.974;4.968;2024-03-23T05:30:17;14.87;;;6.70;;
9974;SDS011;5028;50.974;4.968;2024-03-23T05:32:45;15.60;;;7.23;;
9974;SDS011;5028;50.974;4.968;2024-03-23T05:35:12;11.87;;;6.30;;
9974;SDS011;5028;50.974;4.968;2024-03-23T05:37:38;14.67;;;6.23;;
9974;SDS011;5028;50.974;4.968;2024-03-23T05:40:06;15.33;;;6.83;;
9974;SDS011;5028;50.974;4.968;2024-03-23T05:42:33;13.27;;;6.47;;
9974;SDS011;5028;50.974;4.968;2024-03-23T05:45:01;14.73;;;6.33;;
9974;SDS011;5028;50.974;4.968;2024-03-23T05:47:28;14.37;;;6.43;;
9974;SDS011;5028;50.974;4.968;2024-03-23T05:49:56;11.37;;;5.73;;
9974;SDS011;5028;50.974;4.968;2024-03-23T05:52:22;17.30;;;6.10;;
9974;SDS011;5028;50.974;4.968;2024-03-23T05:54:50;12.63;;;6.00;;
9974;SDS011;5028;50.974;4.968;2024-03-23T05:57:17;10.50;;;5.70;;
9974;SDS011;5028;50.974;4.968;2024-03-23T05:59:44;12.97;;;5.67;;
9974;SDS011;5028;50.974;4.968;2024-03-23T06:02:10;15.97;;;6.07;;
9974;SDS011;5028;50.974;4.968;2024-03-23T06:04:38;12.87;;;5.53;;
9974;SDS011;5028;50.974;4.968;2024-03-23T06:07:08;12.70;;;5.47;;
9974;SDS011;5028;50.974;4.968;2024-03-23T06:09:39;13.23;;;5.77;;
9974;SDS011;5028;50.974;4.968;2024-03-23T06:12:05;14.20;;;5.80;;
9974;SDS011;5028;50.974;4.968;2024-03-23T06:14:33;12.17;;;5.60;;
9974;SDS011;5028;50.974;4.968;2024-03-23T06:17:00;14.43;;;6.00;;
9974;SDS011;5028;50.974;4.968;2024-03-23T06:19:33;10.50;;;4.60;;
9974;SDS011;5028;50.974;4.968;2024-03-23T06:21:59;9.77;;;4.80;;
9974;SDS011;5028;50.974;4.968;2024-03-23T06:24:28;11.40;;;4.80;;
9974;SDS011;5028;50.974;4.968;2024-03-23T06:26:54;11.27;;;5.10;;
9974;SDS011;5028;50.974;4.968;2024-03-23T06:29:21;8.60;;;4.63;;
9974;SDS011;5028;50.974;4.968;2024-03-23T06:31:52;10.47;;;4.77;;
9974;SDS011;5028;50.974;4.968;2024-03-23T06:34:20;10.20;;;4.30;;
9974;SDS011;5028;50.974;4.968;2024-03-23T06:36:47;11.13;;;4.50;;
9974;SDS011;5028;50.974;4.968;2024-03-23T06:39:15;12.47;;;4.30;;
9974;SDS011;5028;50.974;4.968;2024-03-23T06:41:43;10.77;;;4.27;;
9974;SDS011;5028;50.974;4.968;2024-03-23T06:44:17;13.27;;;4.83;;
9974;SDS011;5028;50.974;4.968;2024-03-23T06:46:44;12.53;;;4.90;;
9974;SDS011;5028;50.974;4.968;2024-03-23T06:49:11;13.83;;;4.70;;
9974;SDS011;5028;50.974;4.968;2024-03-23T06:51:37;11.80;;;4.63;;
9974;SDS011;5028;50.974;4.968;2024-03-23T06:54:05;10.10;;;4.57;;
9974;SDS011;5028;50.974;4.968;2024-03-23T06:56:31;11.93;;;4.70;;
9974;SDS011;5028;50.974;4.968;2024-03-23T06:59:00;10.60;;;4.63;;
9974;SDS011;5028;50.974;4.968;2024-03-23T07:01:26;10.53;;;5.10;;
9974;SDS011;5028;50.974;4.968;2024-03-23T07:03:54;11.23;;;4.17;;
9974;SDS011;5028;50.974;4.968;2024-03-23T07:06:20;10.20;;;5.13;;
9974;SDS011;5028;50.974;4.968;2024-03-23T07:08:47;10.93;;;4.47;;
9974;SDS011;5028;50.974;4.968;2024-03-23T07:11:19;9.50;;;4.00;;
9974;SDS011;5028;50.974;4.968;2024-03-23T07:13:49;12.60;;;3.93;;
9974;SDS011;5028;50.974;4.968;2024-03-23T07:16:17;10.07;;;3.70;;
9974;SDS011;5028;50.974;4.968;2024-03-23T07:18:44;13.33;;;4.60;;
9974;SDS011;5028;50.974;4.968;2024-03-23T07:21:10;10.03;;;3.87;;
9974;SDS011;5028;50.974;4.968;2024-03-23T07:23:38;9.17;;;3.23;;
9974;SDS011;5028;50.974;4.968;2024-03-23T07:26:07;10.53;;;3.73;;
9974;SDS011;5028;50.974;4.968;2024-03-23T07:28:34;9.80;;;3.20;;
9974;SDS011;5028;50.974;4.968;2024-03-23T07:31:02;11.97;;;3.63;;
9974;SDS011;5028;50.974;4.968;2024-03-23T07:33:31;10.97;;;3.40;;
9974;SDS011;5028;50.974;4.968;2024-03-23T07:35:58;9.23;;;3.10;;
9974;SDS011;5028;50.974;4.968;2024-03-23T07:38:26;9.50;;;3.43;;
9974;SDS011;5028;50.974;4.968;2024-03-23T07:41:02;10.80;;;2.83;;
9974;SDS011;5028;50.974;4.968;2024-03-23T07:43:29;8.90;;;3.07;;
9974;SDS011;5028;50.974;4.968;2024-03-23T07:45:55;10.00;;;3.07;;
9974;SDS011;5028;50.974;4.968;2024-03-23T07:48:23;6.90;;;3.07;;
9974;SDS011;5028;50.974;4.968;2024-03-23T07:50:57;10.37;;;3.20;;
9974;SDS011;5028;50.974;4.968;2024-03-23T07:53:25;8.83;;;3.17;;
9974;SDS011;5028;50.974;4.968;2024-03-23T07:55:52;7.33;;;3.20;;
9974;SDS011;5028;50.974;4.968;2024-03-23T07:58:23;9.37;;;3.27;;
9974;SDS011;5028;50.974;4.968;2024-03-23T08:00:50;10.40;;;3.23;;
9974;SDS011;5028;50.974;4.968;2024-03-23T08:03:17;9.23;;;2.70;;
9974;SDS011;5028;50.974;4.968;2024-03-23T08:05:46;8.17;;;3.00;;
9974;SDS011;5028;50.974;4.968;2024-03-23T08:08:15;8.07;;;2.50;;
9974;SDS011;5028;50.974;4.968;2024-03-23T08:10:47;9.80;;;2.67;;
9974;SDS011;5028;50.974;4.968;2024-03-23T08:13:15;7.33;;;2.80;;
9974;SDS011;5028;50.974;4.968;2024-03-23T08:15:41;8.73;;;2.73;;
9974;SDS011;5028;50.974;4.968;2024-03-23T08:18:09;8.73;;;2.43;;
9974;SDS011;5028;50.974;4.968;2024-03-23T08:20:35;8.00;;;2.63;;
9974;SDS011;5028;50.974;4.968;2024-03-23T08:23:03;6.60;;;2.33;;
9974;SDS011;5028;50.974;4.968;2024-03-23T08:25:33;7.47;;;2.63;;
9974;SDS011;5028;50.974;4.968;2024-03-23T08:28:00;6.10;;;2.13;;
9974;SDS011;5028;50.974;4.968;2024-03-23T08:30:27;5.30;;;2.03;;
9974;SDS011;5028;50.974;4.968;2024-03-23T08:32:54;4.67;;;2.27;;
9974;SDS011;5028;50.974;4.968;2024-03-23T08:35:21;5.57;;;2.40;;
9974;SDS011;5028;50.974;4.968;2024-03-23T08:37:48;6.20;;;2.00;;
9974;SDS011;5028;50.974;4.968;2024-03-23T08:40:15;6.17;;;1.97;;
9974;SDS011;5028;50.974;4.968;2024-03-23T08:42:42;7.50;;;2.10;;
9974;SDS011;5028;50.974;4.968;2024-03-23T08:45:10;7.77;;;2.17;;
9974;SDS011;5028;50.974;4.968;2024-03-23T08:47:36;7.30;;;2.67;;
9974;SDS011;5028;50.974;4.968;2024-03-23T08:50:04;7.67;;;2.67;;
9974;SDS011;5028;50.974;4.968;2024-03-23T08:52:30;10.47;;;2.70;;
9974;SDS011;5028;50.974;4.968;2024-03-23T08:54:57;7.47;;;2.77;;
9974;SDS011;5028;50.974;4.968;2024-03-23T08:57:27;11.10;;;2.70;;
9974;SDS011;5028;50.974;4.968;2024-03-23T08:59:55;7.27;;;2.70;;
9974;SDS011;5028;50.974;4.968;2024-03-23T09:02:21;9.63;;;3.27;;
9974;SDS011;5028;50.974;4.968;2024-03-23T09:04:49;7.80;;;2.37;;
9974;SDS011;5028;50.974;4.968;2024-03-23T09:07:15;9.37;;;2.37;;
9974;SDS011;5028;50.974;4.968;2024-03-23T09:09:42;10.07;;;2.93;;
9974;SDS011;5028;50.974;4.968;2024-03-23T09:12:08;7.77;;;2.37;;
9974;SDS011;5028;50.974;4.968;2024-03-23T09:14:35;7.00;;;2.70;;
9974;SDS011;5028;50.974;4.968;2024-03-23T09:17:03;4.87;;;2.30;;
9974;SDS011;5028;50.974;4.968;2024-03-23T09:19:30;4.73;;;1.90;;
9974;SDS011;5028;50.974;4.968;2024-03-23T09:21:57;6.60;;;2.20;;
9974;SDS011;5028;50.974;4.968;2024-03-23T09:24:24;8.13;;;2.50;;
9974;SDS011;5028;50.974;4.968;2024-03-23T09:26:51;7.37;;;2.30;;
9974;SDS011;5028;50.974;4.968;2024-03-23T09:29:18;6.77;;;2.70;;
9974;SDS011;5028;50.974;4.968;2024-03-23T09:31:44;4.87;;;2.00;;
9974;SDS011;5028;50.974;4.968;2024-03-23T09:34:13;7.00;;;2.30;;
9974;SDS011;5028;50.974;4.968;2024-03-23T09:36:40;5.63;;;2.13;;
9974;SDS011;5028;50.974;4.968;2024-03-23T09:39:08;7.40;;;2.60;;
9974;SDS011;5028;50.974;4.968;2024-03-23T09:41:35;5.00;;;2.10;;
9974;SDS011;5028;50.974;4.968;2024-03-23T09:44:02;7.53;;;2.30;;
9974;SDS011;5028;50.974;4.968;2024-03-23T09:46:30;7.03;;;2.30;;
9974;SDS011;5028;50.974;4.968;2024-03-23T09:48:59;8.03;;;2.50;;
9974;SDS011;5028;50.974;4.968;2024-03-23T09:51:27;6.83;;;2.37;;
9974;SDS011;5028;50.974;4.968;2024-03-23T09:53:54;7.57;;;2.83;;
9974;SDS011;5028;50.974;4.968;2024-03-23T09:56:21;7.93;;;2.50;;
9974;SDS011;5028;50.974;4.968;2024-03-23T09:58:49;5.10;;;1.90;;
9974;SDS011;5028;50.974;4.968;2024-03-23T10:01:15;4.63;;;1.60;;
9974;SDS011;5028;50.974;4.968;2024-03-23T10:03:43;5.53;;;2.13;;
9974;SDS011;5028;50.974;4.968;2024-03-23T10:06:10;5.53;;;2.23;;
9974;SDS011;5028;50.974;4.968;2024-03-23T10:08:38;5.50;;;1.93;;
9974;SDS011;5028;50.974;4.968;2024-03-23T10:11:12;6.57;;;2.13;;
9974;SDS011;5028;50.974;4.968;2024-03-23T10:13:41;5.23;;;1.90;;
9974;SDS011;5028;50.974;4.968;2024-03-23T10:16:08;5.90;;;2.20;;
9974;SDS011;5028;50.974;4.968;2024-03-23T10:18:39;4.83;;;1.93;;
9974;SDS011;5028;50.974;4.968;2024-03-23T10:21:09;3.47;;;1.50;;
9974;SDS011;5028;50.974;4.968;2024-03-23T10:23:39;7.07;;;2.00;;
9974;SDS011;5028;50.974;4.968;2024-03-23T10:26:16;4.47;;;1.73;;
9974;SDS011;5028;50.974;4.968;2024-03-23T10:28:51;8.53;;;2.10;;
9974;SDS011;5028;50.974;4.968;2024-03-23T10:31:18;5.87;;;1.87;;
9974;SDS011;5028;50.974;4.968;2024-03-23T10:33:45;5.77;;;2.87;;
9974;SDS011;5028;50.974;4.968;2024-03-23T10:36:12;4.73;;;2.23;;
9974;SDS011;5028;50.974;4.968;2024-03-23T10:38:42;4.40;;;2.10;;
9974;SDS011;5028;50.974;4.968;2024-03-23T10:41:10;3.73;;;1.50;;
9974;SDS011;5028;50.974;4.968;2024-03-23T10:43:37;3.80;;;1.40;;
9974;SDS011;5028;50.974;4.968;2024-03-23T10:46:04;2.83;;;1.43;;
9974;SDS011;5028;50.974;4.968;2024-03-23T10:48:32;5.10;;;1.77;;
9974;SDS011;5028;50.974;4.968;2024-03-23T10:50:58;7.50;;;1.90;;
9974;SDS011;5028;50.974;4.968;2024-03-23T10:53:26;3.33;;;1.30;;
9974;SDS011;5028;50.974;4.968;2024-03-23T10:55:55;2.93;;;1.43;;
9974;SDS011;5028;50.974;4.968;2024-03-23T10:58:23;5.70;;;1.70;;
9974;SDS011;5028;50.974;4.968;2024-03-23T11:00:53;2.17;;;1.20;;
9974;SDS011;5028;50.974;4.968;2024-03-23T11:03:30;3.57;;;1.70;;
9974;SDS011;5028;50.974;4.968;2024-03-23T11:05:58;3.73;;;1.70;;
9974;SDS011;5028;50.974;4.968;2024-03-23T11:08:32;4.57;;;1.40;;
9974;SDS011;5028;50.974;4.968;2024-03-23T11:11:13;2.97;;;1.53;;
9974;SDS011;5028;50.974;4.968;2024-03-23T11:13:41;3.03;;;1.33;;
9974;SDS011;5028;50.974;4.968;2024-03-23T11:16:14;6.00;;;1.47;;
9974;SDS011;5028;50.974;4.968;2024-03-23T11:18:48;4.43;;;1.60;;
9974;SDS011;5028;50.974;4.968;2024-03-23T11:24:15;4.80;;;2.10;;
9974;SDS011;5028;50.974;4.968;2024-03-23T11:26:43;2.97;;;1.20;;
9974;SDS011;5028;50.974;4.968;2024-03-23T11:29:10;2.73;;;1.30;;
9974;SDS011;5028;50.974;4.968;2024-03-23T11:31:37;4.50;;;1.47;;
9974;SDS011;5028;50.974;4.968;2024-03-23T11:34:04;3.40;;;1.20;;
9974;SDS011;5028;50.974;4.968;2024-03-23T11:36:32;2.10;;;1.00;;
9974;SDS011;5028;50.974;4.968;2024-03-23T11:39:04;1.83;;;1.17;;
9974;SDS011;5028;50.974;4.968;2024-03-23T11:41:46;1.63;;;1.10;;
9974;SDS011;5028;50.974;4.968;2024-03-23T11:44:14;3.40;;;1.70;;
9974;SDS011;5028;50.974;4.968;2024-03-23T11:46:41;1.83;;;1.40;;
9974;SDS011;5028;50.974;4.968;2024-03-23T11:49:19;1.90;;;1.40;;
9974;SDS011;5028;50.974;4.968;2024-03-23T11:51:48;3.17;;;1.50;;
9974;SDS011;5028;50.974;4.968;2024-03-23T11:54:19;6.57;;;1.80;;
9974;SDS011;5028;50.974;4.968;2024-03-23T11:56:57;4.23;;;1.60;;
9974;SDS011;5028;50.974;4.968;2024-03-23T11:59:34;3.07;;;1.73;;
9974;SDS011;5028;50.974;4.968;2024-03-23T12:02:06;3.47;;;1.70;;
9974;SDS011;5028;50.974;4.968;2024-03-23T12:04:33;3.87;;;1.77;;
9974;SDS011;5028;50.974;4.968;2024-03-23T12:07:11;4.23;;;2.00;;
9974;SDS011;5028;50.974;4.968;2024-03-23T12:09:39;2.87;;;2.00;;
9974;SDS011;5028;50.974;4.968;2024-03-23T12:12:08;4.07;;;1.97;;
9974;SDS011;5028;50.974;4.968;2024-03-23T12:14:37;5.80;;;2.17;;
9974;SDS011;5028;50.974;4.968;2024-03-23T12:17:13;5.93;;;2.37;;
9974;SDS011;5028;50.974;4.968;2024-03-23T12:19:41;3.93;;;1.97;;
9974;SDS011;5028;50.974;4.968;2024-03-23T12:22:08;4.67;;;1.90;;
9974;SDS011;5028;50.974;4.968;2024-03-23T12:24:35;4.23;;;1.80;;
9974;SDS011;5028;50.974;4.968;2024-03-23T12:27:01;4.57;;;1.77;;
9974;SDS011;5028;50.974;4.968;2024-03-23T12:29:31;3.73;;;1.80;;
9974;SDS011;5028;50.974;4.968;2024-03-23T12:31:59;4.73;;;1.90;;
9974;SDS011;5028;50.974;4.968;2024-03-23T12:34:27;3.10;;;1.70;;
9974;SDS011;5028;50.974;4.968;2024-03-23T12:36:53;5.23;;;1.80;;
9974;SDS011;5028;50.974;4.968;2024-03-23T12:39:20;3.90;;;1.40;;
9974;SDS011;5028;50.974;4.968;2024-03-23T12:41:47;4.60;;;1.70;;
9974;SDS011;5028;50.974;4.968;2024-03-23T12:44:14;3.63;;;1.63;;
9974;SDS011;5028;50.974;4.968;2024-03-23T12:46:42;4.17;;;1.97;;
9974;SDS011;5028;50.974;4.968;2024-03-23T12:49:09;6.20;;;2.93;;
9974;SDS011;5028;50.974;4.968;2024-03-23T12:51:35;4.87;;;2.37;;
9974;SDS011;5028;50.974;4.968;2024-03-23T12:54:03;4.60;;;1.50;;
9974;SDS011;5028;50.974;4.968;2024-03-23T12:56:29;4.80;;;1.77;;
9974;SDS011;5028;50.974;4.968;2024-03-23T12:58:56;4.97;;;1.70;;
9974;SDS011;5028;50.974;4.968;2024-03-23T13:01:23;3.93;;;1.50;;
9974;SDS011;5028;50.974;4.968;2024-03-23T13:03:51;4.67;;;1.50;;
9974;SDS011;5028;50.974;4.968;2024-03-23T13:06:18;3.57;;;1.60;;
9974;SDS011;5028;50.974;4.968;2024-03-23T13:08:46;3.63;;;1.40;;
9974;SDS011;5028;50.974;4.968;2024-03-23T13:11:12;3.50;;;1.53;;
9974;SDS011;5028;50.974;4.968;2024-03-23T13:13:41;2.80;;;1.47;;
9974;SDS011;5028;50.974;4.968;2024-03-23T13:16:07;3.07;;;1.13;;
9974;SDS011;5028;50.974;4.968;2024-03-23T13:18:34;3.60;;;1.37;;
9974;SDS011;5028;50.974;4.968;2024-03-23T13:21:02;3.03;;;1.30;;
9974;SDS011;5028;50.974;4.968;2024-03-23T13:23:31;3.90;;;1.30;;
9974;SDS011;5028;50.974;4.968;2024-03-23T13:25:58;2.87;;;1.30;;
9974;SDS011;5028;50.974;4.968;2024-03-23T13:28:25;3.13;;;0.87;;
9974;SDS011;5028;50.974;4.968;2024-03-23T13:30:51;3.17;;;1.60;;
9974;SDS011;5028;50.974;4.968;2024-03-23T13:33:19;4.60;;;1.60;;
9974;SDS011;5028;50.974;4.968;2024-03-23T13:35:49;3.27;;;1.50;;
9974;SDS011;5028;50.974;4.968;2024-03-23T13:38:18;3.73;;;1.57;;
9974;SDS011;5028;50.974;4.968;2024-03-23T13:40:54;2.33;;;1.20;;
9974;SDS011;5028;50.974;4.968;2024-03-23T13:43:22;4.03;;;1.60;;
9974;SDS011;5028;50.974;4.968;2024-03-23T13:45:50;3.40;;;1.30;;
9974;SDS011;5028;50.974;4.968;2024-03-23T13:48:20;3.33;;;1.60;;
9974;SDS011;5028;50.974;4.968;2024-03-23T13:50:56;3.83;;;1.53;;
9974;SDS011;5028;50.974;4.968;2024-03-23T13:53:25;2.60;;;1.20;;
9974;SDS011;5028;50.974;4.968;2024-03-23T13:55:51;5.70;;;1.70;;
9974;SDS011;5028;50.974;4.968;2024-03-23T13:58:19;2.70;;;1.30;;
9974;SDS011;5028;50.974;4.968;2024-03-23T14:00:45;5.33;;;1.73;;
9974;SDS011;5028;50.974;4.968;2024-03-23T14:03:13;3.17;;;1.30;;
9974;SDS011;5028;50.974;4.968;2024-03-23T14:05:40;4.00;;;1.30;;
9974;SDS011;5028;50.974;4.968;2024-03-23T14:08:07;2.87;;;1.40;;
9974;SDS011;5028;50.974;4.968;2024-03-23T14:10:35;3.63;;;1.43;;
9974;SDS011;5028;50.974;4.968;2024-03-23T14:13:03;4.43;;;1.53;;
9974;SDS011;5028;50.974;4.968;2024-03-23T14:15:29;4.20;;;1.50;;
9974;SDS011;5028;50.974;4.968;2024-03-23T14:17:56;2.67;;;1.20;;
9974;SDS011;5028;50.974;4.968;2024-03-23T14:20:23;3.50;;;1.20;;
9974;SDS011;5028;50.974;4.968;2024-03-23T14:22:50;4.73;;;1.63;;
9974;SDS011;5028;50.974;4.968;2024-03-23T14:25:17;5.83;;;1.30;;
9974;SDS011;5028;50.974;4.968;2024-03-23T14:27:46;2.70;;;1.30;;
9974;SDS011;5028;50.974;4.968;2024-03-23T14:30:13;3.93;;;1.53;;
9974;SDS011;5028;50.974;4.968;2024-03-23T14:32:40;2.83;;;1.40;;
9974;SDS011;5028;50.974;4.968;2024-03-23T14:35:07;3.10;;;1.37;;
9974;SDS011;5028;50.974;4.968;2024-03-23T14:37:36;4.87;;;1.60;;
9974;SDS011;5028;50.974;4.968;2024-03-23T14:40:02;3.33;;;1.57;;
9974;SDS011;5028;50.974;4.968;2024-03-23T14:42:30;3.57;;;1.70;;
9974;SDS011;5028;50.974;4.968;2024-03-23T14:44:59;4.43;;;1.47;;
9974;SDS011;5028;50.974;4.968;2024-03-23T14:47:26;3.87;;;1.50;;
9974;SDS011;5028;50.974;4.968;2024-03-23T14:49:52;5.30;;;1.80;;
9974;SDS011;5028;50.974;4.968;2024-03-23T14:52:19;4.73;;;1.70;;
9974;SDS011;5028;50.974;4.968;2024-03-23T14:54:46;3.27;;;1.77;;
9974;SDS011;5028;50.974;4.968;2024-03-23T14:57:13;3.23;;;1.30;;
9974;SDS011;5028;50.974;4.968;2024-03-23T14:59:39;2.90;;;1.27;;
9974;SDS011;5028;50.974;4.968;2024-03-23T15:02:08;2.73;;;1.40;;
9974;SDS011;5028;50.974;4.968;2024-03-23T15:04:34;2.37;;;1.17;;
9974;SDS011;5028;50.974;4.968;2024-03-23T15:07:01;3.67;;;1.47;;
9974;SDS011;5028;50.974;4.968;2024-03-23T15:09:28;3.40;;;1.53;;
9974;SDS011;5028;50.974;4.968;2024-03-23T15:11:55;2.57;;;1.40;;
9974;SDS011;5028;50.974;4.968;2024-03-23T15:14:23;3.00;;;1.47;;
9974;SDS011;5028;50.974;4.968;2024-03-23T15:16:50;4.17;;;1.87;;
9974;SDS011;5028;50.974;4.968;2024-03-23T15:19:19;4.70;;;1.40;;
9974;SDS011;5028;50.974;4.968;2024-03-23T15:21:46;3.23;;;1.40;;
9974;SDS011;5028;50.974;4.968;2024-03-23T15:24:13;4.57;;;1.50;;
9974;SDS011;5028;50.974;4.968;2024-03-23T15:26:40;2.57;;;1.50;;
9974;SDS011;5028;50.974;4.968;2024-03-23T15:29:07;3.57;;;1.37;;
9974;SDS011;5028;50.974;4.968;2024-03-23T15:31:37;3.30;;;1.20;;
9974;SDS011;5028;50.974;4.968;2024-03-23T15:34:04;5.10;;;1.70;;
9974;SDS011;5028;50.974;4.968;2024-03-23T15:36:37;5.70;;;2.00;;
9974;SDS011;5028;50.974;4.968;2024-03-23T15:39:04;2.47;;;1.40;;
9974;SDS011;5028;50.974;4.968;2024-03-23T15:41:31;2.67;;;1.60;;
9974;SDS011;5028;50.974;4.968;2024-03-23T15:43:59;3.33;;;1.43;;
9974;SDS011;5028;50.974;4.968;2024-03-23T15:46:27;2.63;;;1.50;;
9974;SDS011;5028;50.974;4.968;2024-03-23T15:48:53;6.23;;;1.47;;
9974;SDS011;5028;50.974;4.968;2024-03-23T15:51:21;6.30;;;1.70;;
9974;SDS011;5028;50.974;4.968;2024-03-23T15:53:48;9.00;;;1.97;;
9974;SDS011;5028;50.974;4.968;2024-03-23T15:56:17;4.33;;;1.80;;
9974;SDS011;5028;50.974;4.968;2024-03-23T15:58:44;4.43;;;1.60;;
9974;SDS011;5028;50.974;4.968;2024-03-23T16:01:11;4.40;;;1.50;;
9974;SDS011;5028;50.974;4.968;2024-03-23T16:03:38;4.30;;;1.80;;
9974;SDS011;5028;50.974;4.968;2024-03-23T16:06:05;6.57;;;2.00;;
9974;SDS011;5028;50.974;4.968;2024-03-23T16:08:32;3.97;;;1.57;;